sensor_id;sensor_type;location;lat;lon;timestamp;P1;durP1;ratioP1;P2;durP2;ratioP2
81201;SDS011;70675;47.650;-2.782;2023-06-14T00:01:43;13.88;;;7.00;;
81201;SDS011;70675;47.650;-2.782;2023-06-14T00:04:10;11.13;;;5.30;;
81201;SDS011;70675;47.650;-2.782;2023-06-14T00:06:36;22.98;;;8.00;;
81201;SDS011;70675;47.650;-2.782;2023-06-14T00:09:03;8.73;;;4.30;;
81201;SDS011;70675;47.650;-2.782;2023-06-14T00:11:29;4.32;;;2.60;;
81201;SDS011;70675;47.650;-2.782;2023-06-14T00:13:58;12.25;;;7.60;;
81201;SDS011;70675;47.650;-2.782;2023-06-14T00:16:24;11.68;;;6.75;;
81201;SDS011;70675;47.650;-2.782;2023-06-14T00:18:49;8.57;;;5.03;;
81201;SDS011;70675;47.650;-2.782;2023-06-14T00:21:16;11.65;;;6.20;;
81201;SDS011;70675;47.650;-2.782;2023-06-14T00:23:42;11.73;;;6.05;;
81201;SDS011;70675;47.650;-2.782;2023-06-14T00:26:08;11.43;;;6.55;;
81201;SDS011;70675;47.650;-2.782;2023-06-14T00:28:34;9.30;;;5.00;;
81201;SDS011;70675;47.650;-2.782;2023-06-14T00:30:59;10.90;;;6.82;;
81201;SDS011;70675;47.650;-2.782;2023-06-14T00:33:25;14.57;;;7.70;;
81201;SDS011;70675;47.650;-2.782;2023-06-14T00:35:51;11.02;;;6.75;;
81201;SDS011;70675;47.650;-2.782;2023-06-14T00:38:19;12.23;;;7.20;;
81201;SDS011;70675;47.650;-2.782;2023-06-14T00:40:45;14.23;;;6.63;;
81201;SDS011;70675;47.650;-2.782;2023-06-14T00:43:10;11.88;;;6.28;;
81201;SDS011;70675;47.650;-2.782;2023-06-14T00:45:36;9.30;;;5.50;;
81201;SDS011;70675;47.650;-2.782;2023-06-14T00:48:02;14.68;;;6.72;;
81201;SDS011;70675;47.650;-2.782;2023-06-14T00:50:31;9.48;;;6.05;;
81201;SDS011;70675;47.650;-2.782;2023-06-14T00:52:58;21.15;;;10.30;;
81201;SDS011;70675;47.650;-2.782;2023-06-14T00:55:24;21.08;;;9.75;;
81201;SDS011;70675;47.650;-2.782;2023-06-14T00:57:50;11.68;;;7.05;;
81201;SDS011;70675;47.650;-2.782;2023-06-14T01:00:16;14.23;;;7.25;;
81201;SDS011;70675;47.650;-2.782;2023-06-14T01:02:42;16.48;;;8.98;;
81201;SDS011;70675;47.650;-2.782;2023-06-14T01:05:08;18.90;;;9.13;;
81201;SDS011;70675;47.650;-2.782;2023-06-14T01:13:23;12.55;;;7.05;;
81201;SDS011;70675;47.650;-2.782;2023-06-14T01:15:49;11.18;;;5.55;;
81201;SDS011;70675;47.650;-2.782;2023-06-14T01:18:16;15.95;;;8.35;;
81201;SDS011;70675;47.650;-2.782;2023-06-14T01:20:43;13.98;;;6.57;;
81201;SDS011;70675;47.650;-2.782;2023-06-14T01:23:10;14.48;;;6.88;;
81201;SDS011;70675;47.650;-2.782;2023-06-14T01:25:39;15.90;;;7.47;;
81201;SDS011;70675;47.650;-2.782;2023-06-14T01:28:06;20.88;;;8.63;;
81201;SDS011;70675;47.650;-2.782;2023-06-14T01:30:35;15.07;;;8.55;;
81201;SDS011;70675;47.650;-2.782;2023-06-14T01:33:03;14.85;;;8.25;;
81201;SDS011;70675;47.650;-2.782;2023-06-14T01:35:30;15.40;;;7.50;;
81201;SDS011;70675;47.650;-2.782;2023-06-14T01:37:56;11.65;;;7.03;;
81201;SDS011;70675;47.650;-2.782;2023-06-14T01:40:23;17.50;;;9.35;;
81201;SDS011;70675;47.650;-2.782;2023-06-14T01:42:50;14.07;;;7.05;;
81201;SDS011;70675;47.650;-2.782;2023-06-14T01:45:16;9.40;;;3.78;;
81201;SDS011;70675;47.650;-2.782;2023-06-14T01:47:43;20.40;;;8.68;;
81201;SDS011;70675;47.650;-2.782;2023-06-14T01:50:10;17.27;;;5.95;;
81201;SDS011;70675;47.650;-2.782;2023-06-14T01:52:39;17.67;;;8.75;;
81201;SDS011;70675;47.650;-2.782;2023-06-14T01:55:05;19.77;;;9.07;;
81201;SDS011;70675;47.650;-2.782;2023-06-14T01:57:31;11.07;;;5.57;;
81201;SDS011;70675;47.650;-2.782;2023-06-14T01:59:56;18.48;;;8.98;;
81201;SDS011;70675;47.650;-2.782;2023-06-14T02:02:22;21.23;;;10.48;;
81201;SDS011;70675;47.650;-2.782;2023-06-14T02:04:48;11.95;;;6.30;;
81201;SDS011;70675;47.650;-2.782;2023-06-14T02:07:14;15.73;;;8.60;;
81201;SDS011;70675;47.650;-2.782;2023-06-14T02:09:40;21.33;;;8.95;;
81201;SDS011;70675;47.650;-2.782;2023-06-14T02:12:06;16.95;;;7.95;;
81201;SDS011;70675;47.650;-2.782;2023-06-14T02:14:32;18.80;;;9.05;;
81201;SDS011;70675;47.650;-2.782;2023-06-14T02:16:58;17.20;;;9.00;;
81201;SDS011;70675;47.650;-2.782;2023-06-14T02:19:26;13.00;;;7.60;;
81201;SDS011;70675;47.650;-2.782;2023-06-14T02:21:52;23.75;;;10.23;;
81201;SDS011;70675;47.650;-2.782;2023-06-14T02:24:17;19.27;;;10.25;;
81201;SDS011;70675;47.650;-2.782;2023-06-14T02:26:43;24.58;;;12.13;;
81201;SDS011;70675;47.650;-2.782;2023-06-14T02:29:09;28.40;;;10.85;;
81201;SDS011;70675;47.650;-2.782;2023-06-14T02:31:37;24.05;;;11.27;;
81201;SDS011;70675;47.650;-2.782;2023-06-14T02:34:03;24.85;;;11.13;;
81201;SDS011;70675;47.650;-2.782;2023-06-14T02:36:28;22.35;;;10.80;;
81201;SDS011;70675;47.650;-2.782;2023-06-14T02:38:57;25.75;;;9.80;;
81201;SDS011;70675;47.650;-2.782;2023-06-14T02:41:23;22.55;;;10.55;;
81201;SDS011;70675;47.650;-2.782;2023-06-14T02:43:51;22.55;;;10.85;;
81201;SDS011;70675;47.650;-2.782;2023-06-14T02:46:16;20.48;;;9.65;;
81201;SDS011;70675;47.650;-2.782;2023-06-14T02:48:43;32.70;;;13.18;;
81201;SDS011;70675;47.650;-2.782;2023-06-14T02:51:08;24.95;;;9.48;;
81201;SDS011;70675;47.650;-2.782;2023-06-14T02:53:35;26.95;;;13.45;;
81201;SDS011;70675;47.650;-2.782;2023-06-14T02:56:01;16.58;;;8.15;;
81201;SDS011;70675;47.650;-2.782;2023-06-14T02:58:29;22.70;;;11.18;;
81201;SDS011;70675;47.650;-2.782;2023-06-14T03:00:55;26.13;;;10.88;;
81201;SDS011;70675;47.650;-2.782;2023-06-14T03:03:21;22.88;;;11.18;;
81201;SDS011;70675;47.650;-2.782;2023-06-14T03:05:49;29.33;;;12.60;;
81201;SDS011;70675;47.650;-2.782;2023-06-14T03:08:16;23.50;;;10.35;;
81201;SDS011;70675;47.650;-2.782;2023-06-14T03:10:44;22.98;;;11.27;;
81201;SDS011;70675;47.650;-2.782;2023-06-14T03:13:14;16.77;;;7.93;;
81201;SDS011;70675;47.650;-2.782;2023-06-14T03:15:43;24.33;;;12.15;;
81201;SDS011;70675;47.650;-2.782;2023-06-14T03:20:37;29.30;;;12.73;;
81201;SDS011;70675;47.650;-2.782;2023-06-14T03:23:03;26.25;;;12.25;;
81201;SDS011;70675;47.650;-2.782;2023-06-14T03:25:30;21.20;;;9.35;;
81201;SDS011;70675;47.650;-2.782;2023-06-14T03:27:58;19.02;;;8.68;;
81201;SDS011;70675;47.650;-2.782;2023-06-14T03:30:23;24.95;;;11.38;;
81201;SDS011;70675;47.650;-2.782;2023-06-14T03:32:49;22.15;;;10.23;;
81201;SDS011;70675;47.650;-2.782;2023-06-14T03:35:17;19.00;;;9.50;;
81201;SDS011;70675;47.650;-2.782;2023-06-14T03:37:44;20.52;;;10.77;;
81201;SDS011;70675;47.650;-2.782;2023-06-14T03:40:11;23.95;;;10.73;;
81201;SDS011;70675;47.650;-2.782;2023-06-14T03:42:38;29.13;;;12.00;;
81201;SDS011;70675;47.650;-2.782;2023-06-14T03:45:04;27.90;;;11.45;;
81201;SDS011;70675;47.650;-2.782;2023-06-14T03:47:31;31.80;;;14.90;;
81201;SDS011;70675;47.650;-2.782;2023-06-14T03:49:57;21.27;;;11.07;;
81201;SDS011;70675;47.650;-2.782;2023-06-14T03:52:23;14.25;;;7.63;;
81201;SDS011;70675;47.650;-2.782;2023-06-14T03:54:48;15.25;;;8.45;;
81201;SDS011;70675;47.650;-2.782;2023-06-14T03:57:14;21.05;;;10.40;;
81201;SDS011;70675;47.650;-2.782;2023-06-14T03:59:40;19.92;;;9.77;;
81201;SDS011;70675;47.650;-2.782;2023-06-14T04:02:06;21.35;;;10.18;;
81201;SDS011;70675;47.650;-2.782;2023-06-14T04:04:34;25.15;;;11.82;;
81201;SDS011;70675;47.650;-2.782;2023-06-14T04:07:00;25.50;;;11.25;;
81201;SDS011;70675;47.650;-2.782;2023-06-14T04:09:28;20.67;;;11.15;;
81201;SDS011;70675;47.650;-2.782;2023-06-14T04:11:54;28.25;;;11.82;;
81201;SDS011;70675;47.650;-2.782;2023-06-14T04:14:20;26.60;;;11.23;;
81201;SDS011;70675;47.650;-2.782;2023-06-14T04:16:47;14.00;;;8.20;;
81201;SDS011;70675;47.650;-2.782;2023-06-14T04:19:15;16.90;;;8.05;;
81201;SDS011;70675;47.650;-2.782;2023-06-14T04:21:41;22.55;;;11.05;;
81201;SDS011;70675;47.650;-2.782;2023-06-14T04:24:07;13.10;;;7.57;;
81201;SDS011;70675;47.650;-2.782;2023-06-14T04:26:38;23.65;;;8.85;;
81201;SDS011;70675;47.650;-2.782;2023-06-14T04:29:05;24.42;;;11.73;;
81201;SDS011;70675;47.650;-2.782;2023-06-14T04:31:31;24.27;;;12.13;;
81201;SDS011;70675;47.650;-2.782;2023-06-14T04:34:02;29.42;;;13.48;;
81201;SDS011;70675;47.650;-2.782;2023-06-14T04:36:31;21.42;;;9.65;;
81201;SDS011;70675;47.650;-2.782;2023-06-14T04:38:59;25.90;;;11.35;;
81201;SDS011;70675;47.650;-2.782;2023-06-14T04:41:28;21.95;;;10.75;;
81201;SDS011;70675;47.650;-2.782;2023-06-14T04:43:57;24.10;;;11.48;;
81201;SDS011;70675;47.650;-2.782;2023-06-14T04:48:53;21.75;;;11.23;;
81201;SDS011;70675;47.650;-2.782;2023-06-14T04:51:19;22.02;;;11.48;;
81201;SDS011;70675;47.650;-2.782;2023-06-14T04:53:47;21.33;;;10.65;;
81201;SDS011;70675;47.650;-2.782;2023-06-14T04:56:14;23.25;;;11.95;;
81201;SDS011;70675;47.650;-2.782;2023-06-14T04:58:41;24.63;;;11.82;;
81201;SDS011;70675;47.650;-2.782;2023-06-14T05:01:08;19.92;;;9.25;;
81201;SDS011;70675;47.650;-2.782;2023-06-14T05:03:34;23.33;;;10.90;;
81201;SDS011;70675;47.650;-2.782;2023-06-14T05:06:00;27.40;;;10.90;;
81201;SDS011;70675;47.650;-2.782;2023-06-14T05:08:25;24.50;;;12.82;;
81201;SDS011;70675;47.650;-2.782;2023-06-14T05:10:52;26.27;;;10.90;;
81201;SDS011;70675;47.650;-2.782;2023-06-14T05:13:18;26.77;;;12.00;;
81201;SDS011;70675;47.650;-2.782;2023-06-14T05:15:44;20.27;;;10.82;;
81201;SDS011;70675;47.650;-2.782;2023-06-14T05:18:09;21.70;;;10.90;;
81201;SDS011;70675;47.650;-2.782;2023-06-14T05:20:35;27.55;;;13.18;;
81201;SDS011;70675;47.650;-2.782;2023-06-14T05:23:02;24.13;;;11.30;;
81201;SDS011;70675;47.650;-2.782;2023-06-14T05:25:28;23.17;;;11.57;;
81201;SDS011;70675;47.650;-2.782;2023-06-14T05:27:54;22.83;;;11.52;;
81201;SDS011;70675;47.650;-2.782;2023-06-14T05:30:19;29.90;;;13.40;;
81201;SDS011;70675;47.650;-2.782;2023-06-14T05:32:45;22.50;;;10.80;;
81201;SDS011;70675;47.650;-2.782;2023-06-14T05:35:11;28.48;;;13.02;;
81201;SDS011;70675;47.650;-2.782;2023-06-14T05:37:36;26.73;;;12.15;;
81201;SDS011;70675;47.650;-2.782;2023-06-14T05:40:03;22.90;;;11.10;;
81201;SDS011;70675;47.650;-2.782;2023-06-14T05:42:31;19.20;;;10.45;;
81201;SDS011;70675;47.650;-2.782;2023-06-14T05:44:57;21.17;;;9.73;;
81201;SDS011;70675;47.650;-2.782;2023-06-14T05:47:22;24.42;;;11.30;;
81201;SDS011;70675;47.650;-2.782;2023-06-14T05:49:48;26.83;;;10.85;;
81201;SDS011;70675;47.650;-2.782;2023-06-14T05:52:13;18.75;;;9.77;;
81201;SDS011;70675;47.650;-2.782;2023-06-14T05:54:39;30.88;;;13.20;;
81201;SDS011;70675;47.650;-2.782;2023-06-14T05:57:06;21.13;;;11.30;;
81201;SDS011;70675;47.650;-2.782;2023-06-14T05:59:32;21.60;;;11.65;;
81201;SDS011;70675;47.650;-2.782;2023-06-14T06:01:59;24.42;;;12.32;;
81201;SDS011;70675;47.650;-2.782;2023-06-14T06:04:25;24.20;;;11.30;;
81201;SDS011;70675;47.650;-2.782;2023-06-14T06:06:50;29.08;;;13.98;;
81201;SDS011;70675;47.650;-2.782;2023-06-14T06:09:16;27.80;;;12.63;;
81201;SDS011;70675;47.650;-2.782;2023-06-14T06:11:42;25.15;;;12.05;;
81201;SDS011;70675;47.650;-2.782;2023-06-14T06:14:07;26.25;;;13.20;;
81201;SDS011;70675;47.650;-2.782;2023-06-14T06:16:33;24.67;;;12.10;;
81201;SDS011;70675;47.650;-2.782;2023-06-14T06:18:58;25.80;;;13.77;;
81201;SDS011;70675;47.650;-2.782;2023-06-14T06:21:24;24.73;;;11.65;;
81201;SDS011;70675;47.650;-2.782;2023-06-14T06:23:50;29.10;;;15.32;;
81201;SDS011;70675;47.650;-2.782;2023-06-14T06:26:15;23.02;;;11.00;;
81201;SDS011;70675;47.650;-2.782;2023-06-14T06:28:41;24.92;;;11.93;;
81201;SDS011;70675;47.650;-2.782;2023-06-14T06:31:07;22.42;;;10.95;;
81201;SDS011;70675;47.650;-2.782;2023-06-14T06:33:32;23.40;;;10.32;;
81201;SDS011;70675;47.650;-2.782;2023-06-14T06:35:58;21.60;;;11.15;;
81201;SDS011;70675;47.650;-2.782;2023-06-14T06:38:24;23.40;;;11.02;;
81201;SDS011;70675;47.650;-2.782;2023-06-14T06:40:50;27.85;;;12.35;;
81201;SDS011;70675;47.650;-2.782;2023-06-14T06:43:16;22.67;;;10.73;;
81201;SDS011;70675;47.650;-2.782;2023-06-14T06:45:42;20.48;;;10.73;;
81201;SDS011;70675;47.650;-2.782;2023-06-14T06:48:08;25.15;;;11.90;;
81201;SDS011;70675;47.650;-2.782;2023-06-14T06:50:37;26.98;;;12.10;;
81201;SDS011;70675;47.650;-2.782;2023-06-14T06:53:03;19.83;;;9.65;;
81201;SDS011;70675;47.650;-2.782;2023-06-14T06:55:29;21.55;;;10.15;;
81201;SDS011;70675;47.650;-2.782;2023-06-14T06:57:55;20.88;;;10.15;;
81201;SDS011;70675;47.650;-2.782;2023-06-14T07:00:21;20.10;;;10.93;;
81201;SDS011;70675;47.650;-2.782;2023-06-14T07:02:46;18.73;;;10.27;;
81201;SDS011;70675;47.650;-2.782;2023-06-14T07:05:12;17.20;;;9.82;;
81201;SDS011;70675;47.650;-2.782;2023-06-14T07:07:38;21.05;;;10.60;;
81201;SDS011;70675;47.650;-2.782;2023-06-14T07:10:04;24.33;;;11.68;;
81201;SDS011;70675;47.650;-2.782;2023-06-14T07:12:33;19.67;;;8.13;;
81201;SDS011;70675;47.650;-2.782;2023-06-14T07:15:04;20.52;;;9.93;;
81201;SDS011;70675;47.650;-2.782;2023-06-14T07:17:33;21.52;;;10.50;;
81201;SDS011;70675;47.650;-2.782;2023-06-14T07:19:59;18.02;;;9.50;;
81201;SDS011;70675;47.650;-2.782;2023-06-14T07:22:30;21.20;;;11.35;;
81201;SDS011;70675;47.650;-2.782;2023-06-14T07:24:55;16.40;;;9.60;;
81201;SDS011;70675;47.650;-2.782;2023-06-14T07:27:21;16.75;;;10.48;;
81201;SDS011;70675;47.650;-2.782;2023-06-14T07:29:47;19.95;;;9.38;;
81201;SDS011;70675;47.650;-2.782;2023-06-14T07:32:13;17.73;;;8.45;;
81201;SDS011;70675;47.650;-2.782;2023-06-14T07:34:39;18.08;;;8.98;;
81201;SDS011;70675;47.650;-2.782;2023-06-14T07:37:04;23.95;;;9.93;;
81201;SDS011;70675;47.650;-2.782;2023-06-14T07:39:30;18.30;;;8.63;;
81201;SDS011;70675;47.650;-2.782;2023-06-14T07:41:56;15.85;;;8.80;;
81201;SDS011;70675;47.650;-2.782;2023-06-14T07:44:21;15.07;;;9.05;;
81201;SDS011;70675;47.650;-2.782;2023-06-14T07:46:47;19.58;;;10.38;;
81201;SDS011;70675;47.650;-2.782;2023-06-14T07:49:14;16.73;;;10.25;;
81201;SDS011;70675;47.650;-2.782;2023-06-14T07:51:40;17.00;;;9.00;;
81201;SDS011;70675;47.650;-2.782;2023-06-14T07:54:06;12.40;;;6.70;;
81201;SDS011;70675;47.650;-2.782;2023-06-14T07:56:33;15.48;;;8.38;;
81201;SDS011;70675;47.650;-2.782;2023-06-14T07:59:00;19.27;;;9.98;;
81201;SDS011;70675;47.650;-2.782;2023-06-14T08:01:26;26.25;;;11.95;;
81201;SDS011;70675;47.650;-2.782;2023-06-14T08:03:52;15.45;;;8.05;;
81201;SDS011;70675;47.650;-2.782;2023-06-14T08:06:18;22.58;;;9.40;;
81201;SDS011;70675;47.650;-2.782;2023-06-14T08:08:44;20.33;;;9.55;;
81201;SDS011;70675;47.650;-2.782;2023-06-14T08:11:09;14.57;;;8.65;;
81201;SDS011;70675;47.650;-2.782;2023-06-14T08:13:35;18.50;;;9.05;;
81201;SDS011;70675;47.650;-2.782;2023-06-14T08:16:01;19.77;;;8.88;;
81201;SDS011;70675;47.650;-2.782;2023-06-14T08:18:29;15.45;;;9.43;;
81201;SDS011;70675;47.650;-2.782;2023-06-14T08:20:55;15.18;;;7.68;;
81201;SDS011;70675;47.650;-2.782;2023-06-14T08:23:22;18.92;;;9.07;;
81201;SDS011;70675;47.650;-2.782;2023-06-14T08:25:48;17.60;;;10.75;;
81201;SDS011;70675;47.650;-2.782;2023-06-14T08:28:14;14.90;;;7.72;;
81201;SDS011;70675;47.650;-2.782;2023-06-14T08:30:40;15.75;;;9.18;;
81201;SDS011;70675;47.650;-2.782;2023-06-14T08:33:07;17.00;;;9.77;;
81201;SDS011;70675;47.650;-2.782;2023-06-14T08:35:33;16.02;;;10.10;;
81201;SDS011;70675;47.650;-2.782;2023-06-14T08:38:02;19.17;;;9.18;;
81201;SDS011;70675;47.650;-2.782;2023-06-14T08:40:29;17.70;;;9.20;;
81201;SDS011;70675;47.650;-2.782;2023-06-14T08:42:55;18.45;;;8.70;;
81201;SDS011;70675;47.650;-2.782;2023-06-14T08:45:22;13.55;;;7.93;;
81201;SDS011;70675;47.650;-2.782;2023-06-14T08:47:49;17.90;;;9.57;;
81201;SDS011;70675;47.650;-2.782;2023-06-14T08:50:20;15.63;;;7.95;;
81201;SDS011;70675;47.650;-2.782;2023-06-14T08:52:46;14.52;;;7.68;;
81201;SDS011;70675;47.650;-2.782;2023-06-14T08:55:18;16.55;;;9.40;;
81201;SDS011;70675;47.650;-2.782;2023-06-14T08:57:45;15.00;;;7.85;;
81201;SDS011;70675;47.650;-2.782;2023-06-14T09:00:13;14.07;;;7.03;;
81201;SDS011;70675;47.650;-2.782;2023-06-14T09:02:39;15.80;;;8.95;;
81201;SDS011;70675;47.650;-2.782;2023-06-14T09:05:08;21.17;;;9.15;;
81201;SDS011;70675;47.650;-2.782;2023-06-14T09:07:43;11.80;;;8.13;;
81201;SDS011;70675;47.650;-2.782;2023-06-14T09:12:37;16.08;;;8.73;;
81201;SDS011;70675;47.650;-2.782;2023-06-14T09:15:04;15.43;;;7.43;;
81201;SDS011;70675;47.650;-2.782;2023-06-14T09:17:49;12.30;;;8.25;;
81201;SDS011;70675;47.650;-2.782;2023-06-14T09:20:14;17.10;;;10.50;;
81201;SDS011;70675;47.650;-2.782;2023-06-14T09:22:43;13.93;;;7.45;;
81201;SDS011;70675;47.650;-2.782;2023-06-14T09:25:09;15.35;;;8.52;;
81201;SDS011;70675;47.650;-2.782;2023-06-14T09:27:37;19.33;;;11.07;;
81201;SDS011;70675;47.650;-2.782;2023-06-14T09:30:06;16.35;;;9.25;;
81201;SDS011;70675;47.650;-2.782;2023-06-14T09:32:37;18.15;;;9.18;;
81201;SDS011;70675;47.650;-2.782;2023-06-14T09:35:07;17.52;;;8.98;;
81201;SDS011;70675;47.650;-2.782;2023-06-14T09:37:33;10.05;;;6.65;;
81201;SDS011;70675;47.650;-2.782;2023-06-14T09:39:59;14.18;;;8.35;;
81201;SDS011;70675;47.650;-2.782;2023-06-14T09:42:25;15.05;;;8.57;;
81201;SDS011;70675;47.650;-2.782;2023-06-14T09:44:53;14.38;;;7.53;;
81201;SDS011;70675;47.650;-2.782;2023-06-14T09:47:20;12.30;;;7.05;;
81201;SDS011;70675;47.650;-2.782;2023-06-14T09:49:46;16.30;;;9.73;;
81201;SDS011;70675;47.650;-2.782;2023-06-14T09:52:16;10.90;;;7.07;;
81201;SDS011;70675;47.650;-2.782;2023-06-14T09:54:43;12.45;;;7.20;;
81201;SDS011;70675;47.650;-2.782;2023-06-14T09:57:19;11.40;;;6.07;;
81201;SDS011;70675;47.650;-2.782;2023-06-14T09:59:47;12.75;;;7.53;;
81201;SDS011;70675;47.650;-2.782;2023-06-14T10:02:26;13.55;;;8.23;;
81201;SDS011;70675;47.650;-2.782;2023-06-14T10:05:02;12.32;;;7.70;;
81201;SDS011;70675;47.650;-2.782;2023-06-14T10:07:38;11.32;;;7.00;;
81201;SDS011;70675;47.650;-2.782;2023-06-14T10:12:44;13.93;;;7.50;;
81201;SDS011;70675;47.650;-2.782;2023-06-14T10:15:12;11.05;;;6.35;;
81201;SDS011;70675;47.650;-2.782;2023-06-14T10:17:52;10.35;;;6.90;;
81201;SDS011;70675;47.650;-2.782;2023-06-14T10:20:37;13.02;;;7.25;;
81201;SDS011;70675;47.650;-2.782;2023-06-14T10:23:13;11.32;;;7.30;;
81201;SDS011;70675;47.650;-2.782;2023-06-14T10:25:43;13.50;;;7.03;;
81201;SDS011;70675;47.650;-2.782;2023-06-14T10:28:16;13.35;;;8.20;;
81201;SDS011;70675;47.650;-2.782;2023-06-14T10:33:32;12.23;;;7.35;;
81201;SDS011;70675;47.650;-2.782;2023-06-14T10:39:16;14.27;;;7.70;;
81201;SDS011;70675;47.650;-2.782;2023-06-14T10:41:50;12.65;;;8.40;;
81201;SDS011;70675;47.650;-2.782;2023-06-14T10:46:48;11.13;;;6.63;;
81201;SDS011;70675;47.650;-2.782;2023-06-14T10:49:18;11.40;;;7.32;;
81201;SDS011;70675;47.650;-2.782;2023-06-14T10:51:45;11.65;;;7.18;;
81201;SDS011;70675;47.650;-2.782;2023-06-14T10:54:21;11.27;;;6.90;;
81201;SDS011;70675;47.650;-2.782;2023-06-14T10:56:49;13.85;;;8.77;;
81201;SDS011;70675;47.650;-2.782;2023-06-14T10:59:16;13.98;;;7.18;;
81201;SDS011;70675;47.650;-2.782;2023-06-14T11:12:21;17.15;;;9.98;;
81201;SDS011;70675;47.650;-2.782;2023-06-14T11:14:50;13.07;;;8.55;;
81201;SDS011;70675;47.650;-2.782;2023-06-14T11:17:15;15.95;;;8.65;;
81201;SDS011;70675;47.650;-2.782;2023-06-14T11:19:41;14.95;;;8.27;;
81201;SDS011;70675;47.650;-2.782;2023-06-14T11:22:06;10.20;;;6.78;;
81201;SDS011;70675;47.650;-2.782;2023-06-14T11:24:32;15.13;;;9.07;;
81201;SDS011;70675;47.650;-2.782;2023-06-14T11:26:58;14.27;;;7.50;;
81201;SDS011;70675;47.650;-2.782;2023-06-14T11:29:24;12.70;;;7.80;;
81201;SDS011;70675;47.650;-2.782;2023-06-14T11:31:50;14.70;;;9.43;;
81201;SDS011;70675;47.650;-2.782;2023-06-14T11:34:17;11.27;;;7.60;;
81201;SDS011;70675;47.650;-2.782;2023-06-14T11:36:42;11.38;;;7.18;;
81201;SDS011;70675;47.650;-2.782;2023-06-14T11:39:08;11.02;;;6.93;;
81201;SDS011;70675;47.650;-2.782;2023-06-14T11:41:40;11.90;;;7.22;;
81201;SDS011;70675;47.650;-2.782;2023-06-14T11:44:09;12.80;;;7.57;;
81201;SDS011;70675;47.650;-2.782;2023-06-14T11:46:36;14.68;;;8.77;;
81201;SDS011;70675;47.650;-2.782;2023-06-14T11:49:02;14.73;;;8.30;;
81201;SDS011;70675;47.650;-2.782;2023-06-14T11:51:32;10.27;;;7.05;;
81201;SDS011;70675;47.650;-2.782;2023-06-14T11:54:00;10.57;;;6.82;;
81201;SDS011;70675;47.650;-2.782;2023-06-14T11:56:30;10.43;;;6.80;;
81201;SDS011;70675;47.650;-2.782;2023-06-14T11:58:57;13.15;;;7.38;;
81201;SDS011;70675;47.650;-2.782;2023-06-14T12:01:22;11.32;;;7.53;;
81201;SDS011;70675;47.650;-2.782;2023-06-14T12:03:49;11.80;;;7.60;;
81201;SDS011;70675;47.650;-2.782;2023-06-14T12:06:15;10.00;;;7.30;;
81201;SDS011;70675;47.650;-2.782;2023-06-14T12:08:43;13.60;;;8.18;;
81201;SDS011;70675;47.650;-2.782;2023-06-14T12:11:11;12.18;;;6.90;;
81201;SDS011;70675;47.650;-2.782;2023-06-14T12:13:38;10.55;;;6.53;;
81201;SDS011;70675;47.650;-2.782;2023-06-14T12:16:11;11.10;;;7.00;;
81201;SDS011;70675;47.650;-2.782;2023-06-14T12:18:37;12.30;;;7.55;;
81201;SDS011;70675;47.650;-2.782;2023-06-14T12:21:07;11.52;;;6.80;;
81201;SDS011;70675;47.650;-2.782;2023-06-14T12:23:47;8.45;;;5.68;;
81201;SDS011;70675;47.650;-2.782;2023-06-14T12:26:18;11.23;;;6.97;;
81201;SDS011;70675;47.650;-2.782;2023-06-14T12:28:45;12.00;;;6.90;;
81201;SDS011;70675;47.650;-2.782;2023-06-14T12:31:12;11.70;;;7.00;;
81201;SDS011;70675;47.650;-2.782;2023-06-14T12:33:39;11.82;;;6.50;;
81201;SDS011;70675;47.650;-2.782;2023-06-14T12:36:08;9.80;;;7.35;;
81201;SDS011;70675;47.650;-2.782;2023-06-14T12:38:35;13.05;;;6.53;;
81201;SDS011;70675;47.650;-2.782;2023-06-14T12:41:01;8.57;;;5.72;;
81201;SDS011;70675;47.650;-2.782;2023-06-14T12:43:27;8.10;;;5.90;;
81201;SDS011;70675;47.650;-2.782;2023-06-14T12:45:53;12.32;;;7.55;;
81201;SDS011;70675;47.650;-2.782;2023-06-14T12:48:19;12.30;;;6.72;;
81201;SDS011;70675;47.650;-2.782;2023-06-14T12:50:45;10.63;;;6.40;;
81201;SDS011;70675;47.650;-2.782;2023-06-14T12:53:11;10.05;;;6.60;;
81201;SDS011;70675;47.650;-2.782;2023-06-14T12:55:37;11.65;;;7.65;;
81201;SDS011;70675;47.650;-2.782;2023-06-14T12:58:02;9.13;;;6.65;;
81201;SDS011;70675;47.650;-2.782;2023-06-14T13:00:28;11.10;;;6.95;;
81201;SDS011;70675;47.650;-2.782;2023-06-14T13:05:23;9.38;;;6.20;;
81201;SDS011;70675;47.650;-2.782;2023-06-14T13:07:49;10.65;;;6.72;;
81201;SDS011;70675;47.650;-2.782;2023-06-14T13:10:16;9.93;;;6.72;;
81201;SDS011;70675;47.650;-2.782;2023-06-14T13:12:42;8.13;;;6.28;;
81201;SDS011;70675;47.650;-2.782;2023-06-14T13:15:07;10.10;;;6.57;;
81201;SDS011;70675;47.650;-2.782;2023-06-14T13:17:34;9.20;;;6.25;;
81201;SDS011;70675;47.650;-2.782;2023-06-14T13:20:06;9.57;;;6.70;;
81201;SDS011;70675;47.650;-2.782;2023-06-14T13:22:33;9.35;;;6.05;;
81201;SDS011;70675;47.650;-2.782;2023-06-14T13:24:59;9.38;;;5.80;;
81201;SDS011;70675;47.650;-2.782;2023-06-14T13:27:27;11.88;;;5.53;;
81201;SDS011;70675;47.650;-2.782;2023-06-14T13:29:53;8.85;;;6.32;;
81201;SDS011;70675;47.650;-2.782;2023-06-14T13:32:20;13.18;;;6.28;;
81201;SDS011;70675;47.650;-2.782;2023-06-14T13:34:46;7.88;;;5.78;;
81201;SDS011;70675;47.650;-2.782;2023-06-14T13:37:12;8.50;;;6.00;;
81201;SDS011;70675;47.650;-2.782;2023-06-14T13:39:38;9.18;;;5.97;;
81201;SDS011;70675;47.650;-2.782;2023-06-14T13:42:04;10.48;;;5.85;;
81201;SDS011;70675;47.650;-2.782;2023-06-14T13:44:30;7.90;;;5.50;;
81201;SDS011;70675;47.650;-2.782;2023-06-14T13:46:56;11.85;;;6.10;;
81201;SDS011;70675;47.650;-2.782;2023-06-14T13:49:22;7.28;;;5.28;;
81201;SDS011;70675;47.650;-2.782;2023-06-14T13:51:47;11.07;;;6.88;;
81201;SDS011;70675;47.650;-2.782;2023-06-14T13:54:13;10.10;;;5.65;;
81201;SDS011;70675;47.650;-2.782;2023-06-14T13:56:41;9.13;;;5.78;;
81201;SDS011;70675;47.650;-2.782;2023-06-14T13:59:07;7.55;;;5.05;;
81201;SDS011;70675;47.650;-2.782;2023-06-14T14:01:34;8.68;;;6.40;;
81201;SDS011;70675;47.650;-2.782;2023-06-14T14:04:00;9.52;;;6.05;;
81201;SDS011;70675;47.650;-2.782;2023-06-14T14:06:26;8.98;;;6.57;;
81201;SDS011;70675;47.650;-2.782;2023-06-14T14:08:51;12.60;;;7.35;;
81201;SDS011;70675;47.650;-2.782;2023-06-14T14:11:18;7.18;;;5.43;;
81201;SDS011;70675;47.650;-2.782;2023-06-14T14:13:45;8.45;;;5.88;;
81201;SDS011;70675;47.650;-2.782;2023-06-14T14:16:12;10.38;;;5.88;;
81201;SDS011;70675;47.650;-2.782;2023-06-14T14:18:38;8.05;;;6.43;;
81201;SDS011;70675;47.650;-2.782;2023-06-14T14:21:04;8.95;;;6.47;;
81201;SDS011;70675;47.650;-2.782;2023-06-14T14:23:30;7.75;;;5.80;;
81201;SDS011;70675;47.650;-2.782;2023-06-14T14:25:55;8.80;;;5.68;;
81201;SDS011;70675;47.650;-2.782;2023-06-14T14:28:24;11.68;;;6.60;;
81201;SDS011;70675;47.650;-2.782;2023-06-14T14:30:50;10.10;;;7.13;;
81201;SDS011;70675;47.650;-2.782;2023-06-14T14:33:16;10.82;;;6.95;;
81201;SDS011;70675;47.650;-2.782;2023-06-14T14:35:43;9.38;;;6.40;;
81201;SDS011;70675;47.650;-2.782;2023-06-14T14:38:11;8.93;;;6.10;;
81201;SDS011;70675;47.650;-2.782;2023-06-14T14:40:37;8.52;;;5.93;;
81201;SDS011;70675;47.650;-2.782;2023-06-14T14:43:02;10.13;;;5.53;;
81201;SDS011;70675;47.650;-2.782;2023-06-14T14:45:28;12.10;;;7.57;;
81201;SDS011;70675;47.650;-2.782;2023-06-14T14:47:54;11.15;;;5.75;;
81201;SDS011;70675;47.650;-2.782;2023-06-14T14:50:19;8.48;;;5.93;;
81201;SDS011;70675;47.650;-2.782;2023-06-14T14:52:45;8.70;;;6.03;;
81201;SDS011;70675;47.650;-2.782;2023-06-14T14:55:11;12.98;;;7.20;;